METAR Data
IDs: Format: Raw Decoded Include TAF

Data at: 0429 UTC 26 Sep 2018

KIPL 260353Z AUTO 00000KT 10SM CLR 31/13 A2978 RMK AO2 SLP086 T03060128
KIPL 260253Z AUTO 00000KT 10SM CLR 31/12 A2976 RMK AO2 SLP079 T03110122 53008
KIPL 260153Z AUTO 00000KT 10SM CLR 34/12 A2975 RMK AO2 SLP075 T03440117
KIPL 260053Z AUTO 28004KT 10SM CLR 36/12 A2974 RMK AO2 SLP072 T03560117
KIPL 252353Z AUTO 25005KT 10SM CLR 36/12 A2974 RMK AO2 SLP070 T03610117 10372 20311 56015
KIPL 252253Z AUTO 05004KT 10SM CLR 37/12 A2974 RMK AO2 SLP072 T03670117
KIPL 252153Z AUTO 10SM CLR 36/13 A2976 RMK AO2 SLP077 T03610133
KIPL 252053Z AUTO 07005KT 10SM CLR 36/13 A2978 RMK AO2 SLP085 T03610133 58018
KIPL 251953Z AUTO 06004KT 10SM CLR 35/15 A2981 RMK AO2 SLP094 T03500150
KIPL 251853Z AUTO 10SM CLR 34/16 A2982 RMK AO2 SLP099 T03390161
KIPL 251753Z AUTO 09005KT 10SM CLR 31/18 A2983 RMK AO2 SLP103 T03110178 10317 20211 50012
KIPL 251653Z AUTO 08004KT 10SM CLR 30/17 A2983 RMK AO2 SLP104 T03000167
KIPL 251553Z AUTO 09003KT 10SM CLR 27/13 A2982 RMK AO2 SLP099 T02720133
KIPL 251453Z AUTO 13005KT 10SM CLR 26/11 A2980 RMK AO2 SLP092 T02610111 53019
KIPL 251353Z AUTO 00000KT 10SM CLR 22/09 A2978 RMK AO2 SLP085 T02220089
KIPL 251253Z AUTO 00000KT 10SM CLR 23/08 A2976 RMK AO2 SLP078 T02280083
KIPL 251153Z AUTO 00000KT 10SM CLR 23/09 A2974 RMK AO2 SLP072 T02330089 10294 20233 53007
KIPL 251053Z AUTO 12006KT 10SM CLR 24/08 A2972 RMK AO2 SLP066 T02440078
KIPL 250953Z AUTO 14004KT 10SM CLR 25/09 A2972 RMK AO2 SLP066 T02500089
KIPL 250853Z AUTO 15004KT 10SM CLR 26/11 A2972 RMK AO2 SLP065 T02610106 53004
KIPL 250753Z AUTO 13005KT 10SM CLR 27/12 A2971 RMK AO2 SLP062 T02670122 403940239
KIPL 250653Z AUTO 08004KT 10SM CLR 28/09 A2971 RMK AO2 SLP061 T02780089
KIPL 250553Z AUTO 25004KT 10SM CLR 27/09 A2971 RMK AO2 SLP061 T02720089 10389 20272 51018
KIPL 250453Z AUTO 15004KT 10SM CLR 32/07 A2970 RMK AO2 SLP056 T03170067
KIPL 250353Z AUTO 19006KT 10SM CLR 31/06 A2968 RMK AO2 SLP052 T03110061
KIPL 250253Z AUTO 14010KT 10SM CLR 33/04 A2966 RMK AO2 SLP043 T03330044 53011
KIPL 250153Z AUTO 14009KT 10SM CLR 36/03 A2964 RMK AO2 SLP038 T03560033
KIPL 250053Z AUTO 13011KT 10SM CLR 38/07 A2962 RMK AO2 SLP032 T03780072
KIPL 242353Z AUTO 00000KT 10SM CLR 39/10 A2962 RMK AO2 SLP032 T03890100 10394 20339 56018
KIPL 242253Z AUTO VRB03KT 10SM CLR 39/08 A2963 RMK AO2 SLP035 T03890083
KIPL 242153Z AUTO 07006KT 10SM CLR 39/10 A2965 RMK AO2 SLP040 T03890100
KIPL 242053Z AUTO 08007KT 10SM CLR 38/10 A2968 RMK AO2 SLP050 T03830100 58021
KIPL 241953Z AUTO 05005KT 10SM CLR 38/10 A2970 RMK AO2 SLP058 T03830100
KIPL 241853Z AUTO 00000KT 10SM CLR 37/14 A2972 RMK AO2 SLP065 T03670139
KIPL 241753Z AUTO 00000KT 10SM CLR 34/17 A2974 RMK AO2 SLP071 T03390167 10344 20239 50003
KIPL 241653Z AUTO 10004KT 10SM CLR 33/18 A2974 RMK AO2 SLP073 T03280178